Terminal Aerodrome Forecast
Issued by NWS

Home | Current Version | Previous Version | Text Only | Print | Product List | Glossary On
Versions: 1 2 3 4 5 6 7 8 9 10 11 12 13 14 15 16 17 18 19 20 21 22 23 24 25 26 27
000
FTUS41 KBGM 291100
TAFITH
TAF
KITH 291133Z 2912/3012 31004KT P6SM OVC050
      TEMPO 2912/2914 OVC008
     FM291400 30006KT P6SM BKN050
     FM300000 05003KT P6SM FEW050=

USA.gov is the U.S. government's official web portal to all federal, state and local government web resources and services.